createdAt,value
2022-08-28T00:00:54.691Z,101997.00
2022-08-28T00:03:21.366Z,101977.03
2022-08-28T00:05:47.886Z,101984.06
2022-08-28T00:08:15.489Z,101985.81
2022-08-28T00:10:42.503Z,101962.66
2022-08-28T00:13:15.662Z,101984.19
2022-08-28T00:15:42.505Z,101963.53
2022-08-28T00:18:09.188Z,101967.06
2022-08-28T00:20:36.779Z,101972.41
2022-08-28T00:23:04.250Z,101955.06
2022-08-28T00:25:31.448Z,101961.22
2022-08-28T00:28:00.745Z,101969.03
2022-08-28T00:30:35.774Z,101960.47
2022-08-28T00:33:06.665Z,101988.25
2022-08-28T00:35:33.555Z,101963.16
2022-08-28T00:38:00.933Z,101945.06
2022-08-28T00:40:32.845Z,101959.91
2022-08-28T00:43:01.646Z,101959.09
2022-08-28T00:45:29.440Z,101990.28
2022-08-28T00:47:56.419Z,101966.06
2022-08-28T00:50:28.060Z,101951.38
2022-08-28T00:53:00.838Z,101992.22
2022-08-28T00:55:28.722Z,101966.28
2022-08-28T00:57:59.541Z,101996.69
2022-08-28T01:00:33.895Z,101991.44
2022-08-28T01:03:01.569Z,101949.16
2022-08-28T01:05:29.664Z,101984.66
2022-08-28T01:07:58.905Z,101987.19
2022-08-28T01:10:28.303Z,101975.19
2022-08-28T01:12:56.325Z,101974.47
2022-08-28T01:15:31.597Z,101977.97
2022-08-28T01:18:08.267Z,101971.97
2022-08-28T01:20:38.317Z,101996.16
2022-08-28T01:23:40.621Z,101990.94
2022-08-28T01:26:11.662Z,101983.97
2022-08-28T01:28:39.018Z,101966.84
2022-08-28T01:31:06.048Z,101971.13
2022-08-28T01:33:32.722Z,101981.53
2022-08-28T01:35:59.549Z,101977.31
2022-08-28T01:38:27.819Z,101957.47
2022-08-28T01:40:57.457Z,101994.69
2022-08-28T01:43:27.386Z,101968.06
2022-08-28T01:45:57.633Z,101987.78
2022-08-28T01:48:26.141Z,101950.69
2022-08-28T01:50:53.132Z,101973.28
2022-08-28T01:53:25.008Z,101956.75
2022-08-28T01:55:53.723Z,101982.75
2022-08-28T01:58:21.686Z,101986.19
2022-08-28T02:00:49.046Z,101988.00
2022-08-28T02:03:16.143Z,101964.72
2022-08-28T02:05:43.729Z,101969.06
2022-08-28T02:08:10.382Z,101961.31
2022-08-28T02:10:39.130Z,101982.88
2022-08-28T02:13:07.361Z,101992.50
2022-08-28T02:15:36.767Z,101972.69
2022-08-28T02:18:04.149Z,102000.41
2022-08-28T02:20:31.202Z,101996.06
2022-08-28T02:22:58.202Z,101976.28
2022-08-28T02:25:25.863Z,102004.06
2022-08-28T02:27:52.895Z,101978.19
2022-08-28T02:30:19.943Z,101993.75
2022-08-28T02:32:46.910Z,102007.63
2022-08-28T02:35:16.433Z,101985.25
2022-08-28T02:37:45.449Z,101995.63
2022-08-28T02:40:16.927Z,101980.97
2022-08-28T02:42:44.225Z,101986.19
2022-08-28T02:45:12.472Z,101997.38
2022-08-28T02:47:41.027Z,101987.91
2022-08-28T02:50:09.878Z,101961.22
2022-08-28T02:52:37.647Z,101985.44
2022-08-28T02:55:07.559Z,101987.16
2022-08-28T02:57:35.367Z,101984.66
2022-08-28T03:00:05.654Z,101994.25
2022-08-28T03:02:32.213Z,101964.03
2022-08-28T03:05:00.803Z,101979.56
2022-08-28T03:07:28.817Z,101977.94
2022-08-28T03:09:55.589Z,101982.28
2022-08-28T03:12:25.730Z,101972.06
2022-08-28T03:14:53.046Z,101990.19
2022-08-28T03:17:20.199Z,101968.66
2022-08-28T03:19:46.874Z,101994.72
2022-08-28T03:22:13.546Z,101967.06
2022-08-28T03:24:40.179Z,101994.75
2022-08-28T03:27:06.848Z,101972.34
2022-08-28T03:29:33.528Z,101979.34
2022-08-28T03:32:00.508Z,101969.88
2022-08-28T03:34:27.197Z,101959.47
2022-08-28T03:36:54.254Z,101983.75
2022-08-28T03:39:20.862Z,101976.88
2022-08-28T03:41:47.378Z,101988.16
2022-08-28T03:44:14.163Z,101989.94
2022-08-28T03:46:41.005Z,101988.16
2022-08-28T03:49:07.704Z,101976.94
2022-08-28T03:51:34.638Z,101956.25
2022-08-28T03:54:04.270Z,101975.28
2022-08-28T03:56:31.327Z,101975.28
2022-08-28T03:59:02.132Z,101990.88
2022-08-28T04:01:29.038Z,101985.66
2022-08-28T04:03:56.382Z,101931.97
2022-08-28T04:06:23.164Z,101969.25
2022-08-28T04:08:51.223Z,101959.81
2022-08-28T04:11:18.291Z,101971.03
2022-08-28T04:13:45.147Z,101977.03
2022-08-28T04:16:14.174Z,101976.28
2022-08-28T04:18:43.169Z,101956.38
2022-08-28T04:21:19.294Z,101976.31
2022-08-28T04:23:47.319Z,102004.03
2022-08-28T04:26:17.131Z,101976.38
2022-08-28T04:28:44.211Z,102003.19
2022-08-28T04:31:10.815Z,101971.19
2022-08-28T04:33:38.595Z,101986.69
2022-08-28T04:36:08.491Z,101974.69
2022-08-28T04:38:35.172Z,101984.16
2022-08-28T04:41:06.589Z,101995.44
2022-08-28T04:43:33.672Z,101982.47
2022-08-28T04:46:05.400Z,101992.91
2022-08-28T04:48:31.966Z,101973.06
2022-08-28T04:50:58.783Z,101974.78
2022-08-28T04:53:25.739Z,101960.16
2022-08-28T04:55:55.067Z,101955.00
2022-08-28T04:58:24.113Z,101981.88
2022-08-28T05:00:52.341Z,102003.59
2022-08-28T05:03:19.387Z,102002.78
2022-08-28T05:05:53.702Z,102016.75
2022-08-28T05:08:23.390Z,101994.22
2022-08-28T05:10:51.065Z,102002.97
2022-08-28T05:13:18.656Z,102012.44
2022-08-28T05:15:47.825Z,102025.50
2022-08-28T05:18:15.889Z,102034.25
2022-08-28T05:20:45.714Z,102008.28
2022-08-28T05:23:13.281Z,101984.06
2022-08-28T05:25:43.516Z,102034.28
2022-08-28T05:28:12.282Z,102006.63
2022-08-28T05:30:41.985Z,102043.94
2022-08-28T05:33:10.432Z,102043.94
2022-08-28T05:35:38.946Z,102032.72
2022-08-28T05:38:06.728Z,102041.31
2022-08-28T05:40:34.578Z,102020.59
2022-08-28T05:43:01.278Z,102024.84
2022-08-28T05:45:27.952Z,102028.31
2022-08-28T05:47:54.550Z,102041.25
2022-08-28T05:50:21.466Z,102044.75
2022-08-28T05:52:48.224Z,102016.09
2022-08-28T05:55:14.916Z,102014.34
2022-08-28T05:57:41.891Z,102062.84
2022-08-28T06:00:13.651Z,102054.03
2022-08-28T06:02:42.150Z,102059.19
2022-08-28T06:05:12.867Z,102056.50
2022-08-28T06:07:41.208Z,102064.28
2022-08-28T06:10:10.540Z,102064.19
2022-08-28T06:12:37.760Z,102061.53
2022-08-28T06:15:06.186Z,102047.63
2022-08-28T06:17:32.919Z,102044.91
2022-08-28T06:19:59.539Z,102020.66
2022-08-28T06:22:26.280Z,102045.59
2022-08-28T06:24:53.123Z,102068.03
2022-08-28T06:27:19.848Z,102085.34
2022-08-28T06:29:46.550Z,102080.84
2022-08-28T06:32:13.511Z,102079.06
2022-08-28T06:34:40.433Z,102064.22
2022-08-28T06:37:08.252Z,102087.47
2022-08-28T06:39:34.807Z,102073.47
2022-08-28T06:42:01.470Z,102086.22
2022-08-28T06:44:28.285Z,102073.09
2022-08-28T06:46:55.677Z,102088.44
2022-08-28T06:49:22.909Z,102088.31
2022-08-28T06:51:49.843Z,102102.09
2022-08-28T06:54:22.386Z,102073.34
2022-08-28T06:56:50.931Z,102101.69
2022-08-28T06:59:17.458Z,102060.84
2022-08-28T07:01:44.069Z,102066.75
2022-08-28T07:04:12.174Z,102105.63
2022-08-28T07:06:41.187Z,102113.31
2022-08-28T07:09:11.354Z,102107.03
2022-08-28T07:11:39.327Z,102107.69
2022-08-28T07:14:06.461Z,102110.13
2022-08-28T07:16:38.543Z,102104.88
2022-08-28T07:19:07.681Z,102102.88
2022-08-28T07:21:38.330Z,102102.63
2022-08-28T07:24:07.066Z,102086.84
2022-08-28T07:26:35.710Z,102091.81
2022-08-28T07:29:10.159Z,102112.34
2022-08-28T07:31:43.111Z,102105.09
2022-08-28T07:34:11.641Z,102117.09
2022-08-28T07:36:39.140Z,102089.19
2022-08-28T07:39:07.146Z,102082.03
2022-08-28T07:41:37.461Z,102111.16
2022-08-28T07:44:22.747Z,102088.31
2022-08-28T07:46:57.416Z,102109.50
2022-08-28T07:49:25.455Z,102108.09
2022-08-28T07:51:55.515Z,102046.97
2022-08-28T07:54:23.694Z,102097.97
2022-08-28T07:56:51.258Z,102059.44
2022-08-28T07:59:22.074Z,102098.41
2022-08-28T08:01:51.804Z,102093.19
2022-08-28T08:04:20.393Z,102077.88
2022-08-28T08:06:53.236Z,102097.88
2022-08-28T08:09:22.384Z,102056.97
2022-08-28T08:11:52.445Z,102072.22
2022-08-28T08:14:21.523Z,102105.72
2022-08-28T08:16:48.709Z,102067.41
2022-08-28T08:19:19.092Z,102078.31
2022-08-28T08:21:56.716Z,102102.50
2022-08-28T08:24:28.518Z,102105.09
2022-08-28T08:27:01.328Z,102098.13
2022-08-28T08:29:33.782Z,102073.94
2022-08-28T08:32:08.069Z,102013.06
2022-08-28T08:34:38.703Z,102042.59
2022-08-28T08:37:06.119Z,102102.81
2022-08-28T08:39:36.905Z,102083.22
2022-08-28T08:42:09.602Z,102075.22
2022-08-28T08:44:40.636Z,102107.03
2022-08-28T08:47:30.580Z,102112.78
2022-08-28T08:49:58.685Z,102112.69
2022-08-28T08:52:43.725Z,102119.22
2022-08-28T08:55:30.004Z,102111.19
2022-08-28T08:58:10.967Z,102113.53
2022-08-28T09:00:58.589Z,102089.16
2022-08-28T09:04:16.492Z,102108.19
2022-08-28T09:06:55.487Z,102075.22
2022-08-28T09:09:45.133Z,102107.53
2022-08-28T09:12:24.880Z,102071.22
2022-08-28T09:15:10.371Z,102084.13
2022-08-28T09:17:51.427Z,102078.63
2022-08-28T09:20:32.438Z,102098.25
2022-08-28T09:23:08.520Z,102111.66
2022-08-28T09:26:06.088Z,102111.19
2022-08-28T09:28:37.824Z,102116.88
2022-08-28T09:31:09.826Z,102107.06
2022-08-28T09:33:50.037Z,102059.50
2022-08-28T09:36:37.730Z,102094.09
2022-08-28T09:39:15.980Z,102110.44
2022-08-28T09:42:10.184Z,102105.44
2022-08-28T09:44:50.891Z,102087.81
2022-08-28T09:47:46.354Z,102103.31
2022-08-28T09:50:38.959Z,102110.44
2022-08-28T09:53:11.729Z,102104.00
2022-08-28T09:55:53.794Z,102110.13
2022-08-28T09:58:22.092Z,102094.06
2022-08-28T10:01:11.280Z,102075.44
2022-08-28T10:03:48.242Z,102042.34
2022-08-28T10:06:26.535Z,102096.88
2022-08-28T10:09:19.336Z,102092.94
2022-08-28T10:12:17.146Z,102101.69
2022-08-28T10:15:19.173Z,102084.03
2022-08-28T10:17:55.030Z,102079.47
2022-08-28T10:20:59.209Z,102116.31
2022-08-28T10:23:38.760Z,102078.03
2022-08-28T10:26:23.617Z,102105.69
2022-08-28T10:29:01.261Z,102094.69
2022-08-28T10:31:39.943Z,102100.16
2022-08-28T10:34:20.419Z,102102.97
2022-08-28T10:37:01.152Z,102073.31
2022-08-28T10:39:36.384Z,102067.31
2022-08-28T10:42:07.535Z,102092.66
2022-08-28T10:44:55.324Z,102077.59
2022-08-28T10:47:35.659Z,102049.28
2022-08-28T10:50:14.256Z,102021.53
2022-08-28T10:52:49.029Z,102064.56
2022-08-28T10:55:23.411Z,102065.94
2022-08-28T10:57:53.315Z,102092.09
2022-08-28T11:00:30.772Z,102049.47
2022-08-28T11:03:34.406Z,102088.97
2022-08-28T11:06:27.966Z,102060.59
2022-08-28T11:09:20.797Z,102064.44
2022-08-28T11:11:49.234Z,102084.78
2022-08-28T11:14:25.970Z,102076.81
2022-08-28T11:16:59.670Z,102039.84
2022-08-28T11:19:43.891Z,102075.81
2022-08-28T11:22:17.864Z,102069.38
2022-08-28T11:24:55.937Z,102068.97
2022-08-28T11:27:35.064Z,102028.66
2022-08-28T11:30:16.802Z,102063.31
2022-08-28T11:32:52.694Z,102067.25
2022-08-28T11:35:38.166Z,102065.44
2022-08-28T11:38:05.443Z,102048.50
2022-08-28T11:40:32.103Z,102066.16
2022-08-28T11:43:18.376Z,102055.78
2022-08-28T11:45:48.008Z,102052.97
2022-08-28T11:48:33.558Z,102051.19
2022-08-28T11:51:07.069Z,102026.56
2022-08-28T11:53:54.885Z,102058.66
2022-08-28T11:56:39.159Z,102050.84
2022-08-28T11:59:35.761Z,102051.16
2022-08-28T12:02:36.959Z,102066.19
2022-08-28T12:05:17.992Z,102065.38
2022-08-28T12:07:49.942Z,102023.13
2022-08-28T12:10:22.624Z,102058.38
2022-08-28T12:12:57.286Z,102055.25
2022-08-28T12:15:29.940Z,102060.50
2022-08-28T12:18:11.958Z,102050.44
2022-08-28T12:20:59.896Z,102055.69
2022-08-28T12:23:59.151Z,102050.97
2022-08-28T12:26:39.966Z,102036.72
2022-08-28T12:29:27.349Z,102017.59
2022-08-28T12:32:11.640Z,102051.09
2022-08-28T12:34:49.773Z,102053.75
2022-08-28T12:37:51.902Z,102050.34
2022-08-28T12:40:24.700Z,102027.56
2022-08-28T12:43:00.863Z,102042.34
2022-08-28T12:45:40.682Z,102040.59
2022-08-28T12:48:17.764Z,102008.34
2022-08-28T12:50:47.031Z,102020.75
2022-08-28T12:53:17.402Z,102032.38
2022-08-28T12:55:46.613Z,101996.41
2022-08-28T12:58:33.627Z,102039.13
2022-08-28T13:01:05.597Z,102036.25
2022-08-28T13:03:36.034Z,102022.91
2022-08-28T13:06:09.265Z,102010.47
2022-08-28T13:08:37.546Z,101998.28
2022-08-28T13:11:04.629Z,102012.44
2022-08-28T13:13:38.626Z,102023.50
2022-08-28T13:16:14.883Z,102038.03
2022-08-28T13:18:50.356Z,102034.94
2022-08-28T13:21:32.739Z,102033.25
2022-08-28T13:24:20.643Z,102031.41
2022-08-28T13:26:47.692Z,102036.97
2022-08-28T13:29:22.045Z,102026.66
2022-08-28T13:31:59.355Z,102024.75
2022-08-28T13:34:29.142Z,102021.69
2022-08-28T13:37:01.962Z,102004.25
2022-08-28T13:39:34.513Z,102021.19
2022-08-28T13:42:08.571Z,102015.38
2022-08-28T13:44:50.767Z,102015.66
2022-08-28T13:47:17.744Z,101988.09
2022-08-28T13:49:44.547Z,102022.84
2022-08-28T13:52:11.649Z,102015.66
2022-08-28T13:54:39.172Z,101983.59
2022-08-28T13:57:10.030Z,101996.22
2022-08-28T13:59:36.815Z,101998.19
2022-08-28T14:02:25.892Z,101994.91
2022-08-28T14:04:53.155Z,102002.47
2022-08-28T14:07:20.028Z,101984.38
2022-08-28T14:09:46.692Z,102005.63
2022-08-28T14:12:13.224Z,102006.97
2022-08-28T14:14:40.582Z,101966.88
2022-08-28T14:17:08.895Z,102001.44
2022-08-28T14:19:36.478Z,101978.22
2022-08-28T14:22:03.337Z,101995.03
2022-08-28T14:24:29.970Z,101983.25
2022-08-28T14:26:57.026Z,101963.97
2022-08-28T14:29:23.740Z,101965.69
2022-08-28T14:31:50.750Z,101970.41
2022-08-28T14:34:20.914Z,101970.00
2022-08-28T14:36:51.135Z,101991.41
2022-08-28T14:39:17.983Z,101958.22
2022-08-28T14:41:46.814Z,101989.09
2022-08-28T14:44:13.814Z,101975.34
2022-08-28T14:46:44.072Z,101964.31
2022-08-28T14:49:13.411Z,101949.13
2022-08-28T14:51:42.473Z,101995.66
2022-08-28T14:54:11.090Z,101948.09
2022-08-28T14:56:38.048Z,101991.50
2022-08-28T14:59:06.956Z,102004.22
2022-08-28T15:01:40.662Z,102009.16
2022-08-28T15:04:14.714Z,102007.72
2022-08-28T15:06:44.700Z,101999.16
2022-08-28T15:09:13.610Z,101950.69
2022-08-28T15:11:42.323Z,101997.19
2022-08-28T15:14:09.707Z,101981.34
2022-08-28T15:16:46.495Z,101983.63
2022-08-28T15:19:17.732Z,101974.03
2022-08-28T15:21:54.219Z,101966.50
2022-08-28T15:24:28.635Z,101968.13
2022-08-28T15:26:55.393Z,101930.22
2022-08-28T15:29:21.916Z,101950.34
2022-08-28T15:31:50.300Z,101977.28
2022-08-28T15:34:23.118Z,101994.59
2022-08-28T15:36:55.191Z,102007.84
2022-08-28T15:39:42.487Z,101985.56
2022-08-28T15:42:10.118Z,102013.38
2022-08-28T15:44:36.687Z,102010.44
2022-08-28T15:47:04.937Z,102005.44
2022-08-28T15:49:36.138Z,102011.31
2022-08-28T15:52:06.115Z,102009.63
2022-08-28T15:54:33.074Z,102001.91
2022-08-28T15:57:00.331Z,101986.66
2022-08-28T15:59:38.069Z,102001.34
2022-08-28T16:02:14.471Z,101999.84
2022-08-28T16:04:41.207Z,102003.47
2022-08-28T16:07:08.011Z,102005.56
2022-08-28T16:09:34.992Z,101989.75
2022-08-28T16:12:01.592Z,101999.75
2022-08-28T16:14:28.461Z,102001.78
2022-08-28T16:16:55.174Z,101996.69
2022-08-28T16:19:21.829Z,101982.16
2022-08-28T16:21:48.846Z,101992.31
2022-08-28T16:24:15.443Z,102004.81
2022-08-28T16:26:42.391Z,101973.56
2022-08-28T16:29:09.285Z,101984.13
2022-08-28T16:31:36.193Z,101970.25
2022-08-28T16:34:05.612Z,101962.13
2022-08-28T16:36:33.342Z,101957.94
2022-08-28T16:39:04.073Z,101991.09
2022-08-28T16:41:31.963Z,101972.97
2022-08-28T16:43:59.047Z,101981.00
2022-08-28T16:46:27.691Z,101991.19
2022-08-28T16:48:55.139Z,101992.44
2022-08-28T16:51:26.731Z,101990.53
2022-08-28T16:53:54.552Z,101989.69
2022-08-28T16:56:23.652Z,101997.56
2022-08-28T16:58:53.029Z,101995.38
2022-08-28T17:01:24.090Z,101984.94
2022-08-28T17:03:52.916Z,102003.84
2022-08-28T17:06:23.630Z,101994.81
2022-08-28T17:08:56.410Z,101989.50
2022-08-28T17:11:27.588Z,101992.25
2022-08-28T17:13:55.334Z,101971.03
2022-08-28T17:16:23.895Z,101982.50
2022-08-28T17:18:52.578Z,101978.59
2022-08-28T17:21:39.485Z,102005.16
2022-08-28T17:24:06.850Z,102006.63
2022-08-28T17:26:33.969Z,101974.78
2022-08-28T17:29:00.707Z,102000.72
2022-08-28T17:31:27.666Z,101986.19
2022-08-28T17:33:54.345Z,102009.56
2022-08-28T17:36:32.539Z,101983.88
2022-08-28T17:39:02.506Z,101968.03
2022-08-28T17:41:29.224Z,101955.44
2022-08-28T17:43:58.203Z,101950.78
2022-08-28T17:46:25.849Z,102018.38
2022-08-28T17:48:56.190Z,101978.22
2022-08-28T17:51:42.702Z,102015.81
2022-08-28T17:54:16.699Z,102022.66
2022-08-28T17:56:44.158Z,102015.09
2022-08-28T17:59:11.853Z,102016.47
2022-08-28T18:01:39.504Z,102023.38
2022-08-28T18:04:06.188Z,102022.50
2022-08-28T18:06:33.775Z,102012.06
2022-08-28T18:09:00.686Z,102023.06
2022-08-28T18:11:28.349Z,102016.75
2022-08-28T18:14:04.526Z,102011.25
2022-08-28T18:16:32.791Z,102024.19
2022-08-28T18:19:05.378Z,101997.88
2022-08-28T18:21:33.509Z,101997.47
2022-08-28T18:24:00.150Z,102008.38
2022-08-28T18:26:26.854Z,101986.41
2022-08-28T18:28:53.658Z,102027.28
2022-08-28T18:31:20.453Z,101998.41
2022-08-28T18:33:47.193Z,102005.78
2022-08-28T18:36:15.079Z,102023.09
2022-08-28T18:38:42.693Z,102027.81
2022-08-28T18:41:10.914Z,102010.97
2022-08-28T18:43:37.788Z,102008.47
2022-08-28T18:46:06.138Z,102004.47
2022-08-28T18:48:36.236Z,101992.69
2022-08-28T18:51:06.196Z,101999.06
2022-08-28T18:53:32.891Z,101984.78
2022-08-28T18:56:00.255Z,102006.56
2022-08-28T18:58:29.318Z,101985.28
2022-08-28T19:00:57.090Z,102001.94
2022-08-28T19:03:23.736Z,102041.75
2022-08-28T19:05:51.364Z,102046.38
2022-08-28T19:08:17.967Z,102002.63
2022-08-28T19:10:47.521Z,102006.28
2022-08-28T19:13:14.740Z,101974.59
2022-08-28T19:15:41.642Z,102005.66
2022-08-28T19:18:08.681Z,101997.47
2022-08-28T19:20:35.480Z,102002.84
2022-08-28T19:23:02.104Z,102043.75
2022-08-28T19:25:30.776Z,102054.25
2022-08-28T19:27:59.681Z,102047.03
2022-08-28T19:30:28.850Z,102049.31
2022-08-28T19:32:56.006Z,102058.09
2022-08-28T19:35:24.540Z,102066.22
2022-08-28T19:37:52.558Z,102043.31
2022-08-28T19:40:20.713Z,102060.69
2022-08-28T19:42:50.121Z,102103.28
2022-08-28T19:45:17.959Z,102079.19
2022-08-28T19:47:44.925Z,102068.94
2022-08-28T19:50:13.990Z,102104.59
2022-08-28T19:52:46.501Z,102111.69
2022-08-28T19:55:18.194Z,102096.94
2022-08-28T19:57:46.837Z,102104.88
2022-08-28T20:00:17.789Z,102062.88
2022-08-28T20:02:45.155Z,102081.25
2022-08-28T20:05:11.791Z,102103.63
2022-08-28T20:07:38.541Z,102101.28
2022-08-28T20:10:06.039Z,102101.56
2022-08-28T20:12:33.188Z,102089.44
2022-08-28T20:15:03.228Z,102112.97
2022-08-28T20:17:30.440Z,102101.13
2022-08-28T20:20:02.469Z,102129.78
2022-08-28T20:22:32.018Z,102109.09
2022-08-28T20:24:58.901Z,102129.97
2022-08-28T20:27:25.962Z,102118.00
2022-08-28T20:29:52.749Z,102093.81
2022-08-28T20:32:19.408Z,102096.50
2022-08-28T20:34:45.975Z,102106.94
2022-08-28T20:37:12.585Z,102129.47
2022-08-28T20:39:41.784Z,102113.34
2022-08-28T20:42:09.887Z,102104.63
2022-08-28T20:44:36.850Z,102105.78
2022-08-28T20:47:04.740Z,102139.41
2022-08-28T20:49:31.387Z,102135.09
2022-08-28T20:52:00.943Z,102109.28
2022-08-28T20:54:32.472Z,102130.84
2022-08-28T20:57:02.440Z,102133.53
2022-08-28T20:59:39.174Z,102118.97
2022-08-28T21:02:22.190Z,102133.69
2022-08-28T21:04:49.176Z,102127.13
2022-08-28T21:07:18.025Z,102098.66
2022-08-28T21:10:04.848Z,102085.06
2022-08-28T21:12:31.813Z,102146.50
2022-08-28T21:14:59.117Z,102120.50
2022-08-28T21:17:30.826Z,102080.94
2022-08-28T21:20:04.571Z,102075.91
2022-08-28T21:22:36.203Z,102057.84
2022-08-28T21:25:09.238Z,102135.53
2022-08-28T21:27:42.607Z,102093.44
2022-08-28T21:30:12.999Z,102090.94
2022-08-28T21:32:43.079Z,102098.72
2022-08-28T21:35:12.165Z,102070.25
2022-08-28T21:37:41.383Z,102101.50
2022-08-28T21:40:14.003Z,102117.94
2022-08-28T21:42:41.183Z,102114.63
2022-08-28T21:45:13.250Z,102125.09
2022-08-28T21:47:42.550Z,102075.16
2022-08-28T21:50:10.934Z,102082.16
2022-08-28T21:52:44.561Z,102037.41
2022-08-28T21:55:14.906Z,102130.66
2022-08-28T21:57:42.592Z,102082.34
2022-08-28T22:00:26.506Z,102121.41
2022-08-28T22:02:53.203Z,102111.84
2022-08-28T22:05:20.485Z,102115.53
2022-08-28T22:07:47.278Z,102125.06
2022-08-28T22:10:14.089Z,102110.63
2022-08-28T22:12:40.766Z,102100.25
2022-08-28T22:15:07.597Z,102114.19
2022-08-28T22:17:34.219Z,102140.22
2022-08-28T22:20:00.872Z,102126.56
2022-08-28T22:22:46.048Z,102122.28
2022-08-28T22:25:12.760Z,102121.56
2022-08-28T22:27:39.395Z,102135.44
2022-08-28T22:30:06.304Z,102132.31
2022-08-28T22:32:33.425Z,102151.38
2022-08-28T22:34:59.994Z,102121.97
2022-08-28T22:37:26.871Z,102133.25
2022-08-28T22:39:53.898Z,102126.44
2022-08-28T22:42:20.520Z,102118.53
2022-08-28T22:44:47.432Z,102118.72
2022-08-28T22:47:14.113Z,102105.94
2022-08-28T22:49:41.035Z,102134.53
2022-08-28T22:52:10.716Z,102153.59
2022-08-28T22:54:37.798Z,102128.56
2022-08-28T22:57:05.830Z,102138.19
2022-08-28T22:59:32.811Z,102126.16
2022-08-28T23:01:59.408Z,102112.44
2022-08-28T23:04:26.836Z,102122.03
2022-08-28T23:06:53.556Z,102139.16
2022-08-28T23:09:23.023Z,102133.22
2022-08-28T23:11:49.769Z,102156.63
2022-08-28T23:14:17.347Z,102165.38
2022-08-28T23:16:45.110Z,102115.22
2022-08-28T23:19:13.538Z,102149.75
2022-08-28T23:21:43.613Z,102145.53
2022-08-28T23:24:12.428Z,102157.72
2022-08-28T23:26:39.352Z,102155.94
2022-08-28T23:29:06.149Z,102150.88
2022-08-28T23:31:32.920Z,102163.84
2022-08-28T23:33:59.830Z,102151.81
2022-08-28T23:36:26.510Z,102141.56
2022-08-28T23:38:53.184Z,102153.81
2022-08-28T23:41:19.978Z,102170.19
2022-08-28T23:43:47.247Z,102161.53
2022-08-28T23:46:16.579Z,102140.94
2022-08-28T23:48:43.493Z,102172.09
2022-08-28T23:51:13.597Z,102147.69
2022-08-28T23:53:42.634Z,102135.66
2022-08-28T23:56:09.769Z,102157.22
2022-08-28T23:58:36.539Z,102139.31
